Time;durP1;ratioP1;P1;durP2;ratioP2;P2;SDS_P1;SDS_P2;PMS_P1;PMS_P2;Temp;Humidity;BMP_temperature;BMP_pressure;BME280_temperature;BME280_humidity;BME280_pressure;Samples;Min_cycle;Max_cycle;Signal;HPM_P1;HPM_P2
2022/12/25 00:03:43;;;;;;;;;;;19.20;44.30;;;;;;8334947;28;19929;-44
2022/12/25 00:07:44;;;;;;;;;;;19.20;44.30;;;;;;8334488;28;19917;-45
2022/12/25 00:11:44;;;;;;;;;;;19.20;44.40;;;;;;8334686;28;19965;-44
2022/12/25 00:15:44;;;;;;;;;;;19.10;44.30;;;;;;8334776;28;19916;-44
2022/12/25 00:19:45;;;;;;;;;;;19.20;44.30;;;;;;8334153;28;19957;-44
2022/12/25 00:23:46;;;;;;;;;;;19.10;44.30;;;;;;8334310;28;19933;-43
2022/12/25 00:27:46;;;;;;;;;;;19.10;44.20;;;;;;8333833;28;19925;-43
2022/12/25 00:31:47;;;;;;;;;;;19.10;44.30;;;;;;8333758;28;19952;-43
2022/12/25 00:35:57;;;;;;;;;;;19.10;44.30;;;;;;8334576;28;19967;-43
2022/12/25 00:39:58;;;;;;;;;;;19.10;44.30;;;;;;8334155;28;19924;-43
2022/12/25 00:43:58;;;;;;;;;;;19.10;44.30;;;;;;8333145;28;19925;-43
2022/12/25 00:47:58;;;;;;;;;;;19.10;44.30;;;;;;8333548;28;19929;-43
2022/12/25 00:51:59;;;;;;;;;;;19.10;44.20;;;;;;8333870;28;19944;-44
2022/12/25 00:56:02;;;;;;;;;;;19.10;44.30;;;;;;8333201;28;19920;-45
2022/12/25 01:00:03;;;;;;;;;;;19.10;44.30;;;;;;8333247;28;19917;-44
2022/12/25 01:04:03;;;;;;;;;;;19.10;44.30;;;;;;8332982;28;19925;-44
2022/12/25 01:08:04;;;;;;;;;;;19.10;44.30;;;;;;8332618;28;19917;-44
2022/12/25 01:12:04;;;;;;;;;;;19.10;44.30;;;;;;8332864;28;20436;-44
2022/12/25 01:16:05;;;;;;;;;;;19.00;44.30;;;;;;8333024;28;19913;-43
2022/12/25 01:20:06;;;;;;;;;;;19.00;44.20;;;;;;8332329;28;20059;-44
2022/12/25 01:24:07;;;;;;;;;;;19.10;44.30;;;;;;8332286;28;20286;-43
2022/12/25 01:28:07;;;;;;;;;;;19.00;44.30;;;;;;8332280;28;19917;-43
2022/12/25 01:32:07;;;;;;;;;;;19.00;44.30;;;;;;8331950;28;19972;-43
2022/12/25 01:36:12;;;;;;;;;;;19.00;44.30;;;;;;8332362;28;19913;-43
2022/12/25 01:40:13;;;;;;;;;;;19.00;44.30;;;;;;8331232;28;19917;-43
2022/12/25 01:44:13;;;;;;;;;;;19.00;44.30;;;;;;8331409;28;19925;-43
2022/12/25 01:48:16;;;;;;;;;;;19.00;44.30;;;;;;8331280;28;19929;-43
2022/12/25 01:52:20;;;;;;;;;;;19.00;44.30;;;;;;8331183;28;20420;-43
2022/12/25 01:56:20;;;;;;;;;;;19.00;44.30;;;;;;8331694;28;20043;-43
2022/12/25 02:00:21;;;;;;;;;;;19.00;44.30;;;;;;8331483;28;19917;-43
2022/12/25 02:04:38;;;;;;;;;;;18.90;44.30;;;;;;8330462;28;19966;-43
2022/12/25 02:08:39;;;;;;;;;;;18.90;44.30;;;;;;8330922;28;19924;-43
2022/12/25 02:12:40;;;;;;;;;;;18.90;44.30;;;;;;8329490;28;19932;-43
2022/12/25 02:16:40;;;;;;;;;;;18.90;44.30;;;;;;8330504;28;19917;-44
2022/12/25 02:20:45;;;;;;;;;;;18.90;44.20;;;;;;8330862;28;19917;-43
2022/12/25 02:24:49;;;;;;;;;;;18.90;44.30;;;;;;8330522;28;19973;-43
2022/12/25 02:28:51;;;;;;;;;;;18.90;44.30;;;;;;8330217;28;19918;-43
2022/12/25 02:34:01;;;;;;;;;;;18.90;44.30;;;;;;8330700;28;19935;-43
2022/12/25 02:37:27;;;;;;;;;;;18.90;44.30;;;;;;8330047;28;20016;-43
2022/12/25 02:41:29;;;;;;;;;;;18.90;44.30;;;;;;8330611;28;19921;-44
2022/12/25 03:07:31;;;;;;;;;;;18.80;44.30;;;;;;8329356;28;19920;-44
2022/12/25 03:11:31;;;;;;;;;;;18.80;44.30;;;;;;8330075;28;19925;-44
2022/12/25 03:28:29;;;;;;;;;;;18.80;44.30;;;;;;8330446;28;20615;-44
2022/12/25 03:32:57;;;;;;;;;;;18.80;44.30;;;;;;8329578;28;19917;-44
2022/12/25 04:38:10;;;;;;;;;;;18.70;44.20;;;;;;8333416;28;20290;-43
2022/12/25 04:42:10;;;;;;;;;;;18.70;44.20;;;;;;8333663;28;19961;-44
2022/12/25 04:46:10;;;;;;;;;;;18.70;44.20;;;;;;8333863;28;19921;-44
2022/12/25 04:50:11;;;;;;;;;;;18.70;44.20;;;;;;8333003;28;19971;-44
2022/12/25 04:54:11;;;;;;;;;;;18.70;44.10;;;;;;8333155;28;19928;-44
2022/12/25 04:58:13;;;;;;;;;;;18.70;44.10;;;;;;8331807;28;22331;-42
2022/12/25 05:02:14;;;;;;;;;;;18.70;44.10;;;;;;8331568;28;19921;-43
2022/12/25 05:06:14;;;;;;;;;;;18.70;44.10;;;;;;8333077;28;19983;-44
2022/12/25 05:10:15;;;;;;;;;;;18.70;44.20;;;;;;8332684;28;20363;-43
2022/12/25 05:14:15;;;;;;;;;;;18.60;44.10;;;;;;8332740;28;19913;-43
2022/12/25 05:18:16;;;;;;;;;;;18.60;44.10;;;;;;8333067;28;20305;-43
2022/12/25 05:22:16;;;;;;;;;;;18.60;44.10;;;;;;8331761;28;19936;-43
2022/12/25 05:26:18;;;;;;;;;;;18.70;44.20;;;;;;8331913;28;19921;-43
2022/12/25 05:30:18;;;;;;;;;;;18.60;44.10;;;;;;8332014;28;19920;-43
2022/12/25 05:34:19;;;;;;;;;;;18.60;44.20;;;;;;8331339;28;19917;-43
2022/12/25 05:38:19;;;;;;;;;;;18.60;44.20;;;;;;8332152;28;19913;-44
2022/12/25 05:42:20;;;;;;;;;;;18.60;44.00;;;;;;8331691;28;19925;-44
2022/12/25 05:46:20;;;;;;;;;;;18.60;44.20;;;;;;8331479;28;19913;-43
2022/12/25 05:50:20;;;;;;;;;;;18.60;44.10;;;;;;8331577;28;19917;-43
2022/12/25 05:54:21;;;;;;;;;;;18.60;44.10;;;;;;8331822;28;19917;-43
2022/12/25 05:58:21;;;;;;;;;;;18.60;44.00;;;;;;8331312;28;20185;-43
2022/12/25 06:02:22;;;;;;;;;;;18.60;44.10;;;;;;8331211;28;19931;-43
2022/12/25 06:06:23;;;;;;;;;;;18.60;44.10;;;;;;8331517;28;19933;-44
2022/12/25 06:10:23;;;;;;;;;;;18.60;44.00;;;;;;8330647;28;19963;-43
2022/12/25 06:14:23;;;;;;;;;;;18.50;44.00;;;;;;8331355;28;19917;-43
2022/12/25 06:18:25;;;;;;;;;;;18.60;44.10;;;;;;8331276;28;19913;-43
2022/12/25 06:22:29;;;;;;;;;;;18.60;44.10;;;;;;8330418;28;20024;-43
2022/12/25 06:26:29;;;;;;;;;;;18.60;44.10;;;;;;8330318;28;19987;-44
2022/12/25 06:30:30;;;;;;;;;;;18.60;44.00;;;;;;8330746;28;20433;-44
2022/12/25 06:34:30;;;;;;;;;;;18.60;44.10;;;;;;8330268;28;19928;-44
2022/12/25 06:38:30;;;;;;;;;;;18.50;44.00;;;;;;8330567;28;19929;-44
2022/12/25 06:42:31;;;;;;;;;;;18.50;44.00;;;;;;8330252;28;19948;-43
2022/12/25 06:46:31;;;;;;;;;;;18.50;44.10;;;;;;8329953;28;19917;-43
2022/12/25 06:50:32;;;;;;;;;;;18.50;44.10;;;;;;8330035;28;19924;-44
2022/12/25 06:54:32;;;;;;;;;;;18.50;44.10;;;;;;8334780;28;19923;-44
2022/12/25 06:58:33;;;;;;;;;;;18.50;44.10;;;;;;8329993;28;19925;-43
2022/12/25 07:02:33;;;;;;;;;;;18.50;44.20;;;;;;8329808;28;19925;-44
2022/12/25 07:06:34;;;;;;;;;;;18.50;44.10;;;;;;8329970;28;19960;-44
2022/12/25 07:10:34;;;;;;;;;;;18.50;44.10;;;;;;8329379;28;20293;-43
2022/12/25 07:14:35;;;;;;;;;;;18.50;44.00;;;;;;8330131;28;19917;-44
2022/12/25 07:18:35;;;;;;;;;;;18.50;44.10;;;;;;8330120;28;19945;-44
2022/12/25 07:22:35;;;;;;;;;;;18.50;44.00;;;;;;8329245;28;19932;-44
2022/12/25 07:26:36;;;;;;;;;;;18.50;44.00;;;;;;8329659;28;19937;-44
2022/12/25 07:30:36;;;;;;;;;;;18.50;43.90;;;;;;8329754;28;20371;-44
2022/12/25 07:34:37;;;;;;;;;;;18.50;44.00;;;;;;8329324;28;19924;-44
2022/12/25 07:38:37;;;;;;;;;;;18.50;44.10;;;;;;8333486;28;19952;-44
2022/12/25 07:42:38;;;;;;;;;;;18.50;44.00;;;;;;8335483;28;19925;-44
2022/12/25 07:46:38;;;;;;;;;;;18.50;44.00;;;;;;8335122;28;19917;-43
2022/12/25 07:50:39;;;;;;;;;;;18.50;44.00;;;;;;8335416;28;20259;-44
2022/12/25 07:54:39;;;;;;;;;;;18.50;44.10;;;;;;8335499;28;19943;-44
2022/12/25 07:58:41;;;;;;;;;;;18.50;44.10;;;;;;8334877;28;20391;-44
2022/12/25 08:02:41;;;;;;;;;;;18.40;44.00;;;;;;8335291;28;19965;-44
2022/12/25 08:06:41;;;;;;;;;;;18.40;44.00;;;;;;8318218;28;19925;-44
2022/12/25 08:10:46;;;;;;;;;;;18.40;44.00;;;;;;8311855;28;19971;-43
2022/12/25 08:14:46;;;;;;;;;;;18.40;44.10;;;;;;8335040;28;20278;-43
2022/12/25 08:18:47;;;;;;;;;;;18.40;44.00;;;;;;8334741;28;19957;-45
2022/12/25 08:22:47;;;;;;;;;;;18.40;44.10;;;;;;8333984;28;19966;-44
2022/12/25 08:26:47;;;;;;;;;;;18.40;44.10;;;;;;8334285;28;19921;-44
2022/12/25 08:30:48;;;;;;;;;;;18.40;44.00;;;;;;8334234;28;19917;-43
2022/12/25 08:34:48;;;;;;;;;;;18.40;44.00;;;;;;8333657;28;20293;-44
2022/12/25 08:38:49;;;;;;;;;;;18.40;44.00;;;;;;8334281;28;19927;-44
2022/12/25 08:42:49;;;;;;;;;;;18.40;44.00;;;;;;8333687;28;19925;-44
2022/12/25 08:46:50;;;;;;;;;;;18.40;44.00;;;;;;8333277;28;19963;-44
2022/12/25 08:50:51;;;;;;;;;;;18.40;43.90;;;;;;8333553;28;19925;-44
2022/12/25 08:54:51;;;;;;;;;;;18.40;44.00;;;;;;8337189;28;20005;-44
2022/12/25 08:58:52;;;;;;;;;;;18.40;43.90;;;;;;8333178;28;19917;-43
2022/12/25 09:02:52;;;;;;;;;;;18.40;43.90;;;;;;8333141;28;19929;-44
2022/12/25 09:06:52;;;;;;;;;;;18.40;43.90;;;;;;8333179;28;19940;-44
2022/12/25 09:10:53;;;;;;;;;;;18.40;43.90;;;;;;8332460;28;20017;-44
2022/12/25 09:14:53;;;;;;;;;;;18.40;44.00;;;;;;8333147;28;19917;-44
2022/12/25 09:18:54;;;;;;;;;;;18.40;44.00;;;;;;8333113;28;19913;-44
2022/12/25 09:22:55;;;;;;;;;;;18.40;44.00;;;;;;8332236;28;19925;-44
2022/12/25 09:26:55;;;;;;;;;;;18.40;44.00;;;;;;8332426;28;19925;-44
2022/12/25 09:30:56;;;;;;;;;;;18.40;44.00;;;;;;8332300;28;20414;-44
2022/12/25 09:34:56;;;;;;;;;;;18.40;44.00;;;;;;8332082;28;19999;-44
2022/12/25 09:38:57;;;;;;;;;;;18.40;44.00;;;;;;8331985;28;19929;-44
2022/12/25 09:42:58;;;;;;;;;;;18.40;44.00;;;;;;8331741;28;19926;-44
2022/12/25 09:47:02;;;;;;;;;;;18.40;44.00;;;;;;8331397;28;20107;-44
2022/12/25 09:51:06;;;;;;;;;;;18.40;44.00;;;;;;8331980;28;19921;-44
2022/12/25 09:55:11;;;;;;;;;;;18.40;44.50;;;;;;8331963;28;19917;-44
2022/12/25 09:59:23;;;;;;;;;;;18.40;44.00;;;;;;8330475;28;19921;-44
2022/12/25 10:03:33;;;;;;;;;;;18.30;43.90;;;;;;8331516;28;20302;-44
2022/12/25 10:07:34;;;;;;;;;;;18.40;44.00;;;;;;8330827;28;19917;-43
2022/12/25 10:11:44;;;;;;;;;;;18.40;44.00;;;;;;8331381;28;19953;-44
2022/12/25 10:16:03;;;;;;;;;;;18.40;44.00;;;;;;8331053;28;20017;-43
2022/12/25 10:20:10;;;;;;;;;;;18.30;43.90;;;;;;8330654;28;19914;-44
2022/12/25 10:24:29;;;;;;;;;;;18.40;44.00;;;;;;8330667;28;19929;-44
2022/12/25 10:28:35;;;;;;;;;;;18.40;43.90;;;;;;8330334;28;19917;-44
2022/12/25 10:32:36;;;;;;;;;;;18.30;43.90;;;;;;8330566;28;19923;-44
2022/12/25 10:36:36;;;;;;;;;;;18.30;43.90;;;;;;8330597;28;19917;-44
2022/12/25 10:40:46;;;;;;;;;;;18.30;43.90;;;;;;8329994;28;20723;-43
2022/12/25 10:44:56;;;;;;;;;;;18.40;44.00;;;;;;8330554;28;19921;-43
2022/12/25 10:48:58;;;;;;;;;;;18.30;43.90;;;;;;8330371;28;19921;-43
2022/12/25 10:53:05;;;;;;;;;;;18.40;44.50;;;;;;8329971;28;19937;-43
2022/12/25 10:57:08;;;;;;;;;;;18.30;43.90;;;;;;8330099;28;19917;-43
2022/12/25 11:01:09;;;;;;;;;;;18.40;44.00;;;;;;8328855;28;19929;-43
2022/12/25 11:05:13;;;;;;;;;;;18.30;43.80;;;;;;8329738;28;19921;-42
2022/12/25 11:09:14;;;;;;;;;;;18.40;43.90;;;;;;8329927;28;19917;-42
2022/12/25 11:13:20;;;;;;;;;;;18.40;43.90;;;;;;8334798;28;20369;-42
2022/12/25 11:17:22;;;;;;;;;;;18.40;43.90;;;;;;8336579;28;20000;-42
2022/12/25 11:21:24;;;;;;;;;;;18.40;44.00;;;;;;8336329;28;19920;-43
2022/12/25 11:25:26;;;;;;;;;;;18.40;44.00;;;;;;8336134;28;19926;-42
2022/12/25 11:29:36;;;;;;;;;;;18.40;43.90;;;;;;8336231;28;19917;-42
2022/12/25 11:33:39;;;;;;;;;;;18.40;43.90;;;;;;8336213;28;20018;-43
2022/12/25 11:37:42;;;;;;;;;;;18.40;43.90;;;;;;8335421;28;20003;-43
2022/12/25 11:41:42;;;;;;;;;;;18.40;43.90;;;;;;8335676;28;20385;-43
2022/12/25 11:45:46;;;;;;;;;;;18.30;43.90;;;;;;8335849;28;20579;-43
2022/12/25 11:49:51;;;;;;;;;;;18.40;44.00;;;;;;8335278;28;19917;-43
2022/12/25 11:53:56;;;;;;;;;;;18.40;44.00;;;;;;8335557;28;20289;-43
2022/12/25 11:57:58;;;;;;;;;;;18.30;43.90;;;;;;8335182;28;19975;-43
2022/12/25 12:02:20;;;;;;;;;;;18.30;43.90;;;;;;8334677;28;19980;-43
2022/12/25 12:06:23;;;;;;;;;;;18.40;44.00;;;;;;8335105;28;19917;-43
2022/12/25 12:10:30;;;;;;;;;;;18.40;44.00;;;;;;8334554;28;19917;-43
2022/12/25 12:14:33;;;;;;;;;;;18.30;43.90;;;;;;8334705;28;19943;-43
2022/12/25 12:18:35;;;;;;;;;;;18.30;43.90;;;;;;8334629;28;19917;-43
2022/12/25 12:22:35;;;;;;;;;;;18.30;43.90;;;;;;8333228;28;19925;-45
2022/12/25 12:26:39;;;;;;;;;;;18.30;43.90;;;;;;8334340;28;19940;-43
2022/12/25 12:30:40;;;;;;;;;;;18.30;44.40;;;;;;8334482;28;19917;-43
2022/12/25 12:34:41;;;;;;;;;;;18.30;43.90;;;;;;8333836;28;19971;-42
2022/12/25 12:38:42;;;;;;;;;;;18.30;43.90;;;;;;8334083;28;20340;-42
2022/12/25 12:42:47;;;;;;;;;;;18.40;43.90;;;;;;8333801;28;19960;-42
2022/12/25 12:46:54;;;;;;;;;;;18.40;43.90;;;;;;8333338;28;19945;-42
2022/12/25 12:51:02;;;;;;;;;;;18.30;43.90;;;;;;8333923;28;20449;-42
2022/12/25 12:55:07;;;;;;;;;;;18.30;43.90;;;;;;8333577;28;19917;-42
2022/12/25 12:59:08;;;;;;;;;;;18.30;43.90;;;;;;8332909;28;19921;-42
2022/12/25 13:03:41;;;;;;;;;;;18.30;43.90;;;;;;8333423;28;20027;-42
2022/12/25 13:08:05;;;;;;;;;;;18.40;43.90;;;;;;8288855;28;19924;-42
2022/12/25 13:12:07;;;;;;;;;;;18.40;43.90;;;;;;8333074;28;20011;-43
2022/12/25 13:16:18;;;;;;;;;;;18.40;44.00;;;;;;8333148;28;19923;-42
2022/12/25 13:20:23;;;;;;;;;;;18.30;44.00;;;;;;8332487;28;19917;-42
2022/12/25 13:24:25;;;;;;;;;;;18.40;43.90;;;;;;8332596;28;19925;-43
2022/12/25 13:28:26;;;;;;;;;;;18.30;43.90;;;;;;8332093;28;20055;-42
2022/12/25 13:32:31;;;;;;;;;;;18.40;44.00;;;;;;8332491;28;19917;-43
2022/12/25 13:36:35;;;;;;;;;;;18.40;44.00;;;;;;8331457;28;19923;-44
2022/12/25 13:40:36;;;;;;;;;;;18.30;43.90;;;;;;8331708;28;19917;-43
2022/12/25 13:44:45;;;;;;;;;;;18.30;43.90;;;;;;8332165;28;19932;-42
2022/12/25 13:48:54;;;;;;;;;;;18.30;44.00;;;;;;8331837;28;19948;-42
2022/12/25 13:52:55;;;;;;;;;;;18.30;43.90;;;;;;8331569;28;19921;-44
2022/12/25 13:56:55;;;;;;;;;;;18.30;43.90;;;;;;8331789;28;19951;-43
2022/12/25 14:00:57;;;;;;;;;;;18.40;44.00;;;;;;8331555;28;19917;-43
2022/12/25 14:04:57;;;;;;;;;;;18.30;43.90;;;;;;8330865;28;20381;-43
2022/12/25 14:08:58;;;;;;;;;;;18.30;43.90;;;;;;8331243;28;19948;-43
2022/12/25 14:13:00;;;;;;;;;;;18.40;44.00;;;;;;8330077;28;19923;-43
2022/12/25 14:17:01;;;;;;;;;;;18.40;43.90;;;;;;8330616;28;19921;-43
2022/12/25 14:21:06;;;;;;;;;;;18.30;43.90;;;;;;8331092;28;19971;-43
2022/12/25 14:25:12;;;;;;;;;;;18.40;43.90;;;;;;8331083;28;19964;-43
2022/12/25 14:29:17;;;;;;;;;;;18.40;44.00;;;;;;8330422;28;19917;-42
2022/12/25 14:33:19;;;;;;;;;;;18.30;44.00;;;;;;8330921;28;19939;-43
2022/12/25 14:37:22;;;;;;;;;;;18.30;43.90;;;;;;8330174;28;19917;-42
2022/12/25 14:41:32;;;;;;;;;;;18.30;44.00;;;;;;8330647;28;19935;-42
2022/12/25 14:45:35;;;;;;;;;;;18.30;43.90;;;;;;8329950;28;19925;-43
2022/12/25 14:49:35;;;;;;;;;;;18.30;43.90;;;;;;8329907;28;20160;-43
2022/12/25 14:53:38;;;;;;;;;;;18.30;43.90;;;;;;8330542;28;20492;-42
2022/12/25 14:57:39;;;;;;;;;;;18.30;44.00;;;;;;8330282;28;19913;-43
2022/12/25 15:01:40;;;;;;;;;;;18.30;44.00;;;;;;8329740;28;19917;-42
2022/12/25 15:05:40;;;;;;;;;;;18.30;44.00;;;;;;8329952;28;19924;-42
2022/12/25 15:09:41;;;;;;;;;;;18.30;43.90;;;;;;8329950;28;19913;-42
2022/12/25 15:13:41;;;;;;;;;;;18.30;44.00;;;;;;8329324;28;19917;-43
2022/12/25 15:17:41;;;;;;;;;;;18.30;44.00;;;;;;8329756;28;20000;-42
2022/12/25 15:21:43;;;;;;;;;;;18.30;44.00;;;;;;8329932;28;20333;-42
2022/12/25 15:25:43;;;;;;;;;;;18.30;44.00;;;;;;8329233;28;19964;-42
2022/12/25 15:29:44;;;;;;;;;;;18.30;44.00;;;;;;8329636;28;19953;-42
2022/12/25 15:33:44;;;;;;;;;;;18.30;43.90;;;;;;8329768;28;19913;-42
2022/12/25 15:37:45;;;;;;;;;;;18.30;44.00;;;;;;8329044;28;19923;-42
2022/12/25 15:46:06;;;;;;;;;;;18.30;44.00;;;;;;8329753;28;19932;-43
2022/12/25 15:50:08;;;;;;;;;;;18.30;43.90;;;;;;8328982;28;19917;-43
2022/12/25 15:54:08;;;;;;;;;;;18.30;43.90;;;;;;8329541;28;19972;-42
2022/12/25 15:58:11;;;;;;;;;;;18.30;44.50;;;;;;8330643;28;19917;-43
2022/12/25 16:02:15;;;;;;;;;;;18.30;44.00;;;;;;8334966;28;19921;-43
2022/12/25 16:06:17;;;;;;;;;;;18.30;43.90;;;;;;8335456;28;19917;-43
2022/12/25 16:10:18;;;;;;;;;;;18.30;43.90;;;;;;8334468;28;19924;-42
2022/12/25 16:14:18;;;;;;;;;;;18.30;44.00;;;;;;8335290;28;20007;-43
2022/12/25 16:18:20;;;;;;;;;;;18.30;43.90;;;;;;8334833;28;19971;-43
2022/12/25 16:22:22;;;;;;;;;;;18.30;43.90;;;;;;8334230;28;19956;-43
2022/12/25 16:26:22;;;;;;;;;;;18.20;43.90;;;;;;8334551;28;19952;-43
2022/12/25 16:30:23;;;;;;;;;;;18.30;44.00;;;;;;8334383;28;19924;-43
2022/12/25 16:34:24;;;;;;;;;;;18.20;44.00;;;;;;8333905;28;20008;-41
2022/12/25 16:38:24;;;;;;;;;;;18.20;43.90;;;;;;8334374;28;19918;-42
2022/12/25 16:42:25;;;;;;;;;;;18.30;43.90;;;;;;8334282;28;19928;-42
2022/12/25 16:46:25;;;;;;;;;;;18.20;43.90;;;;;;8333398;28;19917;-44
2022/12/25 16:50:26;;;;;;;;;;;18.30;44.00;;;;;;8333940;28;19996;-42
2022/12/25 16:54:26;;;;;;;;;;;18.20;43.90;;;;;;8333840;28;19917;-42
2022/12/25 16:58:26;;;;;;;;;;;18.20;43.90;;;;;;8333071;28;19917;-42
2022/12/25 17:02:27;;;;;;;;;;;18.20;43.90;;;;;;8333508;28;20383;-43
2022/12/25 17:06:27;;;;;;;;;;;18.20;44.00;;;;;;8333650;28;19921;-43
2022/12/25 17:10:28;;;;;;;;;;;18.20;43.90;;;;;;8321669;28;19921;-43
2022/12/25 17:14:28;;;;;;;;;;;18.20;44.00;;;;;;8333042;28;19917;-43
2022/12/25 17:18:29;;;;;;;;;;;18.20;43.90;;;;;;8332702;28;20297;-43
2022/12/25 17:22:29;;;;;;;;;;;18.20;43.90;;;;;;8332409;28;20028;-43
2022/12/25 17:26:31;;;;;;;;;;;18.20;43.90;;;;;;8332896;28;19917;-43
2022/12/25 17:30:32;;;;;;;;;;;18.20;43.90;;;;;;8332634;28;20429;-43
2022/12/25 17:34:32;;;;;;;;;;;18.20;43.90;;;;;;8332110;28;19932;-42
2022/12/25 17:38:33;;;;;;;;;;;18.20;43.90;;;;;;8332314;28;19913;-44
2022/12/25 17:42:33;;;;;;;;;;;18.20;43.90;;;;;;8332390;28;20293;-42
2022/12/25 17:46:34;;;;;;;;;;;18.20;43.80;;;;;;8331531;28;19964;-43
2022/12/25 17:50:34;;;;;;;;;;;18.20;43.90;;;;;;8331757;28;19924;-43
2022/12/25 17:54:37;;;;;;;;;;;18.20;43.80;;;;;;8331886;28;20298;-43
2022/12/25 17:58:38;;;;;;;;;;;18.20;43.80;;;;;;8331249;28;19921;-42
2022/12/25 18:02:42;;;;;;;;;;;18.20;44.00;;;;;;8331593;28;20496;-43
2022/12/25 18:06:42;;;;;;;;;;;18.20;44.00;;;;;;8331664;28;19917;-43
2022/12/25 18:10:43;;;;;;;;;;;18.20;43.90;;;;;;8330816;28;19928;-43
2022/12/25 18:14:43;;;;;;;;;;;18.20;43.90;;;;;;8331176;28;19920;-43
2022/12/25 18:18:44;;;;;;;;;;;18.20;43.90;;;;;;8330956;28;19921;-43
2022/12/25 18:22:44;;;;;;;;;;;18.10;43.90;;;;;;8330235;28;19951;-43
2022/12/25 18:26:45;;;;;;;;;;;18.10;43.90;;;;;;8331020;28;20000;-43
2022/12/25 18:30:45;;;;;;;;;;;18.10;44.00;;;;;;8330875;28;19924;-42
2022/12/25 18:34:46;;;;;;;;;;;18.10;44.00;;;;;;8330305;28;19924;-43
2022/12/25 18:38:47;;;;;;;;;;;18.10;44.00;;;;;;8330324;28;19919;-42
2022/12/25 18:42:50;;;;;;;;;;;18.10;43.90;;;;;;8330488;28;20313;-43
2022/12/25 18:46:50;;;;;;;;;;;18.10;44.00;;;;;;8329803;28;20020;-42
2022/12/25 18:50:58;;;;;;;;;;;18.10;43.90;;;;;;8330262;28;19921;-42
2022/12/25 18:54:59;;;;;;;;;;;18.10;43.90;;;;;;8330201;28;19924;-42
2022/12/25 18:58:59;;;;;;;;;;;18.10;43.90;;;;;;8329622;28;19917;-42
2022/12/25 19:03:00;;;;;;;;;;;18.00;43.80;;;;;;8330479;28;19961;-42
2022/12/25 19:07:00;;;;;;;;;;;18.10;43.90;;;;;;8329919;28;19917;-43
2022/12/25 19:11:04;;;;;;;;;;;18.10;43.90;;;;;;8329446;28;19952;-42
2022/12/25 19:15:05;;;;;;;;;;;18.10;44.40;;;;;;8330150;28;20393;-44
2022/12/25 19:19:05;;;;;;;;;;;18.10;43.90;;;;;;8329720;28;19918;-42
2022/12/25 19:23:06;;;;;;;;;;;18.10;43.90;;;;;;8329476;28;20012;-43
2022/12/25 19:27:07;;;;;;;;;;;18.10;43.90;;;;;;8329652;28;19932;-43
2022/12/25 19:31:08;;;;;;;;;;;18.10;43.80;;;;;;8329781;28;19967;-43
2022/12/25 19:35:08;;;;;;;;;;;18.10;43.80;;;;;;8335573;28;19936;-42
2022/12/25 19:39:10;;;;;;;;;;;18.10;43.90;;;;;;8335937;28;19988;-43
2022/12/25 19:43:10;;;;;;;;;;;18.10;43.90;;;;;;8336030;28;19932;-42
2022/12/25 19:47:11;;;;;;;;;;;18.10;43.90;;;;;;8335328;28;19917;-42
2022/12/25 19:51:15;;;;;;;;;;;18.00;43.80;;;;;;8335787;28;19921;-43
2022/12/25 19:55:18;;;;;;;;;;;18.10;44.40;;;;;;8335140;28;20385;-43
2022/12/25 19:59:19;;;;;;;;;;;18.00;43.70;;;;;;8335519;28;19919;-43
2022/12/25 20:03:19;;;;;;;;;;;18.00;43.80;;;;;;8334230;28;19921;-43
2022/12/25 20:07:20;;;;;;;;;;;18.00;43.80;;;;;;8334688;28;19939;-43
2022/12/25 20:11:21;;;;;;;;;;;18.00;43.90;;;;;;8335467;28;19929;-43
2022/12/25 20:15:21;;;;;;;;;;;18.00;43.80;;;;;;8334834;28;19921;-43
2022/12/25 20:19:22;;;;;;;;;;;18.00;43.90;;;;;;8334468;28;19921;-43
2022/12/25 20:23:22;;;;;;;;;;;18.00;43.80;;;;;;8334748;28;20286;-43
2022/12/25 20:27:23;;;;;;;;;;;18.00;43.80;;;;;;8334488;28;19921;-43
2022/12/25 20:31:28;;;;;;;;;;;18.00;43.70;;;;;;8333958;28;20346;-42
2022/12/25 20:35:28;;;;;;;;;;;18.00;43.70;;;;;;8334240;28;19960;-42
2022/12/25 20:39:28;;;;;;;;;;;18.00;43.80;;;;;;8334409;28;20339;-42
2022/12/25 20:43:29;;;;;;;;;;;18.00;43.80;;;;;;8333083;28;20012;-42
2022/12/25 20:47:29;;;;;;;;;;;18.00;43.80;;;;;;8334089;28;19917;-43
2022/12/25 20:51:30;;;;;;;;;;;18.00;43.80;;;;;;8333783;28;20366;-43
2022/12/25 20:55:30;;;;;;;;;;;18.00;43.80;;;;;;8333116;28;19921;-43
2022/12/25 20:59:31;;;;;;;;;;;18.00;43.80;;;;;;8333864;28;19913;-43
2022/12/25 21:03:32;;;;;;;;;;;18.00;43.80;;;;;;8333508;28;20390;-44
2022/12/25 21:07:33;;;;;;;;;;;18.00;43.70;;;;;;8332892;28;19921;-43
2022/12/25 21:11:33;;;;;;;;;;;18.00;43.70;;;;;;8333058;28;19925;-44
2022/12/25 21:15:33;;;;;;;;;;;18.00;43.80;;;;;;8333144;28;20358;-44
2022/12/25 21:19:34;;;;;;;;;;;18.00;43.90;;;;;;8332944;28;19913;-42
2022/12/25 21:23:35;;;;;;;;;;;18.00;43.70;;;;;;8333109;28;20011;-43
2022/12/25 21:27:36;;;;;;;;;;;18.00;43.80;;;;;;8332559;28;19924;-44
2022/12/25 21:35:55;;;;;;;;;;;18.00;43.80;;;;;;8338679;28;19982;-44
2022/12/25 21:39:55;;;;;;;;;;;18.00;43.70;;;;;;8332531;28;20366;-43
2022/12/25 21:43:56;;;;;;;;;;;18.00;43.80;;;;;;8331905;28;19972;-44
2022/12/25 21:47:56;;;;;;;;;;;18.00;43.90;;;;;;8332290;28;20010;-43
2022/12/25 21:52:06;;;;;;;;;;;17.90;43.80;;;;;;8332082;28;19927;-43
2022/12/25 21:56:06;;;;;;;;;;;17.90;43.70;;;;;;8330409;28;20003;-44
2022/12/25 22:00:07;;;;;;;;;;;18.00;43.70;;;;;;8331869;28;19913;-43
2022/12/25 22:04:08;;;;;;;;;;;18.00;43.70;;;;;;8331084;28;20409;-43
2022/12/25 22:08:09;;;;;;;;;;;17.90;43.70;;;;;;8330944;28;19921;-43
2022/12/25 22:21:01;;;;;;;;;;;17.90;43.70;;;;;;8333740;28;19924;-44
2022/12/25 22:25:02;;;;;;;;;;;17.90;43.80;;;;;;8331022;28;20008;-43
2022/12/25 22:29:03;;;;;;;;;;;17.90;43.80;;;;;;8330273;28;19924;-44
2022/12/25 22:33:05;;;;;;;;;;;17.90;43.70;;;;;;8330612;28;20271;-43
2022/12/25 22:37:06;;;;;;;;;;;17.90;43.80;;;;;;8330582;28;19994;-44
2022/12/25 22:41:07;;;;;;;;;;;17.90;43.80;;;;;;8329999;28;20004;-43
2022/12/25 22:45:07;;;;;;;;;;;17.90;43.80;;;;;;8330864;28;19921;-44
2022/12/25 22:49:09;;;;;;;;;;;17.80;43.80;;;;;;8330445;28;20047;-44
2022/12/25 22:53:09;;;;;;;;;;;17.90;43.70;;;;;;8329657;28;19922;-43
2022/12/25 22:57:10;;;;;;;;;;;17.90;43.80;;;;;;8330160;28;19949;-43
2022/12/25 23:01:10;;;;;;;;;;;17.90;43.70;;;;;;8324420;28;19924;-43
2022/12/25 23:05:11;;;;;;;;;;;17.90;43.80;;;;;;8323762;28;19921;-43
2022/12/25 23:09:15;;;;;;;;;;;17.90;43.80;;;;;;8339104;28;19952;-43
2022/12/25 23:26:13;;;;;;;;;;;17.90;43.80;;;;;;8340364;28;19928;-43
2022/12/25 23:30:14;;;;;;;;;;;17.80;43.90;;;;;;8340854;28;19913;-43
2022/12/25 23:34:15;;;;;;;;;;;17.90;43.90;;;;;;8340071;28;19917;-43
2022/12/25 23:38:15;;;;;;;;;;;17.80;43.80;;;;;;8341092;28;19924;-43
2022/12/25 23:42:16;;;;;;;;;;;17.80;43.80;;;;;;8340440;28;19940;-43
2022/12/25 23:46:17;;;;;;;;;;;17.80;43.80;;;;;;8340031;28;19963;-43
2022/12/25 23:50:17;;;;;;;;;;;17.80;43.90;;;;;;8340437;28;20320;-43
2022/12/25 23:54:20;;;;;;;;;;;17.90;43.80;;;;;;8340594;28;19928;-44
2022/12/25 23:58:20;;;;;;;;;;;17.90;43.80;;;;;;8339765;28;19913;-43
